sensor_id;sensor_type;location;lat;lon;timestamp;pressure;altitude;pressure_sealevel;temperature;humidity
11605;BME280;5858;43.076;25.626;2023-02-19T00:01:34;99237.66;;;8.45;69.78
11605;BME280;5858;43.076;25.626;2023-02-19T00:04:04;99347.16;;;9.07;70.84
11605;BME280;5858;43.076;25.626;2023-02-19T00:06:33;99330.19;;;9.00;70.92
11605;BME280;5858;43.076;25.626;2023-02-19T00:09:01;99345.53;;;8.90;71.76
11605;BME280;5858;43.076;25.626;2023-02-19T00:11:30;99338.78;;;8.71;71.67
11605;BME280;5858;43.076;25.626;2023-02-19T00:13:59;99277.66;;;8.29;72.28
11605;BME280;5858;43.076;25.626;2023-02-19T00:16:28;99333.63;;;8.61;72.29
11605;BME280;5858;43.076;25.626;2023-02-19T00:18:57;99255.03;;;8.08;72.47
11605;BME280;5858;43.076;25.626;2023-02-19T00:21:26;99330.28;;;8.67;72.01
11605;BME280;5858;43.076;25.626;2023-02-19T00:23:55;99240.56;;;8.11;71.72
11605;BME280;5858;43.076;25.626;2023-02-19T00:26:22;99239.06;;;8.08;72.02
11605;BME280;5858;43.076;25.626;2023-02-19T00:28:50;99273.19;;;8.21;72.67
11605;BME280;5858;43.076;25.626;2023-02-19T00:31:20;99295.50;;;8.36;73.21
11605;BME280;5858;43.076;25.626;2023-02-19T00:33:50;99340.97;;;8.51;73.60
11605;BME280;5858;43.076;25.626;2023-02-19T00:36:18;99333.97;;;8.42;73.78
11605;BME280;5858;43.076;25.626;2023-02-19T00:38:48;99206.28;;;7.67;74.06
11605;BME280;5858;43.076;25.626;2023-02-19T00:41:16;99229.41;;;7.75;74.25
11605;BME280;5858;43.076;25.626;2023-02-19T00:43:49;99300.81;;;8.20;74.87
11605;BME280;5858;43.076;25.626;2023-02-19T00:46:19;99303.69;;;8.10;75.26
11605;BME280;5858;43.076;25.626;2023-02-19T00:48:47;99323.81;;;8.21;75.31
11605;BME280;5858;43.076;25.626;2023-02-19T00:51:15;99309.16;;;8.25;75.14
11605;BME280;5858;43.076;25.626;2023-02-19T00:53:42;99256.38;;;7.96;74.62
11605;BME280;5858;43.076;25.626;2023-02-19T00:56:11;99267.53;;;8.00;74.51
11605;BME280;5858;43.076;25.626;2023-02-19T00:58:39;99319.47;;;8.28;74.60
11605;BME280;5858;43.076;25.626;2023-02-19T01:01:07;99265.50;;;8.02;74.32
11605;BME280;5858;43.076;25.626;2023-02-19T01:03:35;99234.59;;;7.76;74.66
11605;BME280;5858;43.076;25.626;2023-02-19T01:06:03;99292.00;;;8.28;74.51
11605;BME280;5858;43.076;25.626;2023-02-19T01:08:31;99193.31;;;7.48;74.29
11605;BME280;5858;43.076;25.626;2023-02-19T01:10:59;99150.06;;;7.30;74.43
11605;BME280;5858;43.076;25.626;2023-02-19T01:13:28;99252.53;;;7.90;74.74
11605;BME280;5858;43.076;25.626;2023-02-19T01:16:02;99290.84;;;8.14;74.98
11605;BME280;5858;43.076;25.626;2023-02-19T01:18:30;99191.81;;;7.53;74.76
11605;BME280;5858;43.076;25.626;2023-02-19T01:20:57;99199.28;;;7.50;75.20
11605;BME280;5858;43.076;25.626;2023-02-19T01:23:24;99284.84;;;8.12;75.00
11605;BME280;5858;43.076;25.626;2023-02-19T01:25:51;99175.16;;;7.35;75.02
11605;BME280;5858;43.076;25.626;2023-02-19T01:28:19;99291.16;;;8.03;75.32
11605;BME280;5858;43.076;25.626;2023-02-19T01:30:48;99229.06;;;7.53;75.39
11605;BME280;5858;43.076;25.626;2023-02-19T01:33:15;99234.41;;;7.70;75.17
11605;BME280;5858;43.076;25.626;2023-02-19T01:35:42;99300.50;;;8.07;74.89
11605;BME280;5858;43.076;25.626;2023-02-19T01:38:10;99211.94;;;7.72;74.68
11605;BME280;5858;43.076;25.626;2023-02-19T01:40:37;99270.69;;;7.95;74.79
11605;BME280;5858;43.076;25.626;2023-02-19T01:43:08;99212.25;;;7.53;75.24
11605;BME280;5858;43.076;25.626;2023-02-19T01:45:42;99288.00;;;7.99;75.74
11605;BME280;5858;43.076;25.626;2023-02-19T01:48:13;99229.41;;;7.42;75.97
11605;BME280;5858;43.076;25.626;2023-02-19T01:50:44;99264.22;;;7.65;76.14
11605;BME280;5858;43.076;25.626;2023-02-19T01:53:14;99223.56;;;7.31;75.85
11605;BME280;5858;43.076;25.626;2023-02-19T01:55:45;99298.16;;;7.87;76.01
11605;BME280;5858;43.076;25.626;2023-02-19T01:58:15;99300.16;;;7.69;76.36
11605;BME280;5858;43.076;25.626;2023-02-19T02:00:42;99305.66;;;7.60;76.76
11605;BME280;5858;43.076;25.626;2023-02-19T02:03:11;99308.94;;;7.53;77.64
11605;BME280;5858;43.076;25.626;2023-02-19T02:05:46;99217.69;;;7.03;77.88
11605;BME280;5858;43.076;25.626;2023-02-19T02:08:17;99256.13;;;7.08;78.19
11605;BME280;5858;43.076;25.626;2023-02-19T02:11:02;99324.56;;;7.32;79.21
11605;BME280;5858;43.076;25.626;2023-02-19T02:13:32;99221.63;;;6.74;78.87
11605;BME280;5858;43.076;25.626;2023-02-19T02:16:07;99186.97;;;6.58;78.95
11605;BME280;5858;43.076;25.626;2023-02-19T02:18:51;99251.59;;;7.01;78.95
11605;BME280;5858;43.076;25.626;2023-02-19T02:21:48;99271.06;;;7.01;79.11
11605;BME280;5858;43.076;25.626;2023-02-19T02:24:36;99325.53;;;7.31;79.63
11605;BME280;5858;43.076;25.626;2023-02-19T02:30:16;99315.72;;;7.32;78.87
11605;BME280;5858;43.076;25.626;2023-02-19T02:32:53;99327.84;;;7.26;78.87
11605;BME280;5858;43.076;25.626;2023-02-19T02:35:24;99329.03;;;7.32;78.73
11605;BME280;5858;43.076;25.626;2023-02-19T02:37:55;99297.75;;;7.17;78.60
11605;BME280;5858;43.076;25.626;2023-02-19T02:40:24;99281.88;;;7.08;78.62
11605;BME280;5858;43.076;25.626;2023-02-19T02:42:51;99329.03;;;7.32;78.79
11605;BME280;5858;43.076;25.626;2023-02-19T02:45:27;99323.16;;;7.12;78.81
11605;BME280;5858;43.076;25.626;2023-02-19T02:48:17;99329.00;;;7.15;79.32
11605;BME280;5858;43.076;25.626;2023-02-19T02:50:49;99287.31;;;6.90;79.19
11605;BME280;5858;43.076;25.626;2023-02-19T02:53:20;99248.19;;;6.66;79.18
11605;BME280;5858;43.076;25.626;2023-02-19T02:56:07;99331.66;;;7.15;79.38
11605;BME280;5858;43.076;25.626;2023-02-19T02:58:36;99332.00;;;7.20;78.97
11605;BME280;5858;43.076;25.626;2023-02-19T03:01:08;99348.00;;;7.29;78.62
11605;BME280;5858;43.076;25.626;2023-02-19T03:03:58;99363.97;;;7.29;78.47
11605;BME280;5858;43.076;25.626;2023-02-19T03:06:30;99362.13;;;7.29;78.50
11605;BME280;5858;43.076;25.626;2023-02-19T03:09:06;99269.22;;;6.59;78.70
11605;BME280;5858;43.076;25.626;2023-02-19T03:11:37;99357.28;;;7.16;78.65
11605;BME280;5858;43.076;25.626;2023-02-19T03:14:28;99275.81;;;6.47;78.37
11605;BME280;5858;43.076;25.626;2023-02-19T03:17:21;99299.09;;;6.53;79.51
11605;BME280;5858;43.076;25.626;2023-02-19T03:20:11;99347.09;;;6.78;79.51
11605;BME280;5858;43.076;25.626;2023-02-19T03:22:41;99319.50;;;6.45;79.83
11605;BME280;5858;43.076;25.626;2023-02-19T03:25:12;99230.31;;;5.90;79.85
11605;BME280;5858;43.076;25.626;2023-02-19T03:28:00;99213.16;;;5.67;80.42
11605;BME280;5858;43.076;25.626;2023-02-19T03:30:30;99366.38;;;6.54;80.94
11605;BME280;5858;43.076;25.626;2023-02-19T03:33:02;99352.31;;;6.61;80.92
11605;BME280;5858;43.076;25.626;2023-02-19T03:35:35;99345.81;;;6.56;80.49
11605;BME280;5858;43.076;25.626;2023-02-19T03:38:08;99357.34;;;6.65;80.80
11605;BME280;5858;43.076;25.626;2023-02-19T03:40:43;99359.44;;;6.61;81.25
11605;BME280;5858;43.076;25.626;2023-02-19T03:43:16;99320.69;;;6.24;80.84
11605;BME280;5858;43.076;25.626;2023-02-19T03:45:51;99294.19;;;6.15;81.04
11605;BME280;5858;43.076;25.626;2023-02-19T03:48:30;99295.50;;;6.11;81.18
11605;BME280;5858;43.076;25.626;2023-02-19T03:51:07;99295.34;;;6.12;80.89
11605;BME280;5858;43.076;25.626;2023-02-19T03:53:45;99337.16;;;6.28;81.05
11605;BME280;5858;43.076;25.626;2023-02-19T03:56:18;99277.53;;;5.87;81.12
11605;BME280;5858;43.076;25.626;2023-02-19T03:58:51;99295.06;;;5.97;81.26
11605;BME280;5858;43.076;25.626;2023-02-19T04:01:25;99352.94;;;6.29;82.00
11605;BME280;5858;43.076;25.626;2023-02-19T04:03:57;99271.97;;;5.72;81.97
11605;BME280;5858;43.076;25.626;2023-02-19T04:06:30;99240.41;;;5.69;81.41
11605;BME280;5858;43.076;25.626;2023-02-19T04:09:02;99321.19;;;6.02;81.86
11605;BME280;5858;43.076;25.626;2023-02-19T04:11:32;99351.06;;;6.22;82.68
11605;BME280;5858;43.076;25.626;2023-02-19T04:14:03;99353.03;;;6.20;83.13
11605;BME280;5858;43.076;25.626;2023-02-19T04:16:33;99221.47;;;5.46;83.04
11605;BME280;5858;43.076;25.626;2023-02-19T04:19:09;99370.13;;;6.17;83.45
11605;BME280;5858;43.076;25.626;2023-02-19T04:21:39;99343.09;;;6.22;83.63
11605;BME280;5858;43.076;25.626;2023-02-19T04:24:18;99256.72;;;5.74;82.96
11605;BME280;5858;43.076;25.626;2023-02-19T04:26:47;99355.75;;;6.28;83.00
11605;BME280;5858;43.076;25.626;2023-02-19T04:29:14;99273.47;;;5.75;82.91
11605;BME280;5858;43.076;25.626;2023-02-19T04:31:42;99303.41;;;6.03;82.86
11605;BME280;5858;43.076;25.626;2023-02-19T04:34:10;99318.81;;;6.17;82.49
11605;BME280;5858;43.076;25.626;2023-02-19T04:36:38;99363.63;;;6.38;82.49
11605;BME280;5858;43.076;25.626;2023-02-19T04:39:05;99324.66;;;6.03;82.92
11605;BME280;5858;43.076;25.626;2023-02-19T04:41:32;99255.88;;;5.74;82.38
11605;BME280;5858;43.076;25.626;2023-02-19T04:44:00;99317.84;;;6.00;82.52
11605;BME280;5858;43.076;25.626;2023-02-19T04:46:27;99372.00;;;6.25;83.11
11605;BME280;5858;43.076;25.626;2023-02-19T04:48:54;99355.59;;;6.12;82.61
11605;BME280;5858;43.076;25.626;2023-02-19T04:51:23;99192.91;;;5.22;82.04
11605;BME280;5858;43.076;25.626;2023-02-19T04:53:50;99379.94;;;6.43;82.17
11605;BME280;5858;43.076;25.626;2023-02-19T04:56:18;99380.16;;;6.49;81.68
11605;BME280;5858;43.076;25.626;2023-02-19T04:59:03;99357.75;;;6.26;81.26
11605;BME280;5858;43.076;25.626;2023-02-19T05:01:30;99233.44;;;5.50;81.47
11605;BME280;5858;43.076;25.626;2023-02-19T05:03:57;99396.97;;;6.58;81.11
11605;BME280;5858;43.076;25.626;2023-02-19T05:06:26;99358.16;;;6.39;80.79
11605;BME280;5858;43.076;25.626;2023-02-19T05:08:53;99404.56;;;6.71;80.56
11605;BME280;5858;43.076;25.626;2023-02-19T05:11:20;99420.22;;;6.74;80.45
11605;BME280;5858;43.076;25.626;2023-02-19T05:13:48;99418.03;;;6.69;80.55
11605;BME280;5858;43.076;25.626;2023-02-19T05:16:15;99419.22;;;6.75;80.41
11605;BME280;5858;43.076;25.626;2023-02-19T05:18:43;99410.22;;;6.50;80.45
11605;BME280;5858;43.076;25.626;2023-02-19T05:21:11;99412.25;;;6.56;80.26
11605;BME280;5858;43.076;25.626;2023-02-19T05:23:40;99345.97;;;6.28;80.27
11605;BME280;5858;43.076;25.626;2023-02-19T05:26:11;99442.78;;;6.95;79.70
11605;BME280;5858;43.076;25.626;2023-02-19T05:28:39;99282.47;;;5.82;79.30
11605;BME280;5858;43.076;25.626;2023-02-19T05:31:07;99426.25;;;6.84;79.11
11605;BME280;5858;43.076;25.626;2023-02-19T05:33:39;99467.56;;;7.22;78.42
11605;BME280;5858;43.076;25.626;2023-02-19T05:36:11;99404.22;;;7.00;77.70
11605;BME280;5858;43.076;25.626;2023-02-19T05:38:40;99459.84;;;7.45;77.61
11605;BME280;5858;43.076;25.626;2023-02-19T05:41:10;99397.53;;;7.21;76.46
11605;BME280;5858;43.076;25.626;2023-02-19T05:43:45;99371.31;;;7.01;76.34
11605;BME280;5858;43.076;25.626;2023-02-19T05:46:26;99479.13;;;7.81;76.14
11605;BME280;5858;43.076;25.626;2023-02-19T05:48:54;99485.16;;;7.91;75.44
11605;BME280;5858;43.076;25.626;2023-02-19T05:51:24;99295.59;;;6.79;75.34
11605;BME280;5858;43.076;25.626;2023-02-19T05:53:55;99453.81;;;7.77;75.27
11605;BME280;5858;43.076;25.626;2023-02-19T05:59:33;99402.44;;;7.50;75.19
11605;BME280;5858;43.076;25.626;2023-02-19T06:02:06;99308.81;;;7.05;73.77
11605;BME280;5858;43.076;25.626;2023-02-19T06:04:36;99507.75;;;8.29;73.93
11605;BME280;5858;43.076;25.626;2023-02-19T06:07:14;99353.34;;;7.45;73.65
11605;BME280;5858;43.076;25.626;2023-02-19T06:09:54;99361.78;;;7.90;72.56
11605;BME280;5858;43.076;25.626;2023-02-19T06:12:27;99472.63;;;8.82;71.64
11605;BME280;5858;43.076;25.626;2023-02-19T06:14:55;99551.47;;;9.50;70.31
11605;BME280;5858;43.076;25.626;2023-02-19T06:17:28;99525.31;;;9.76;69.10
11605;BME280;5858;43.076;25.626;2023-02-19T06:19:55;99366.53;;;8.93;67.96
11605;BME280;5858;43.076;25.626;2023-02-19T06:22:22;99431.88;;;9.60;66.19
11605;BME280;5858;43.076;25.626;2023-02-19T06:24:54;99476.16;;;9.94;65.91
11605;BME280;5858;43.076;25.626;2023-02-19T06:27:25;99481.28;;;10.03;64.96
11605;BME280;5858;43.076;25.626;2023-02-19T06:30:05;99366.53;;;9.40;65.66
11605;BME280;5858;43.076;25.626;2023-02-19T06:32:37;99515.81;;;10.21;65.07
11605;BME280;5858;43.076;25.626;2023-02-19T06:35:09;99556.16;;;10.65;65.01
11605;BME280;5858;43.076;25.626;2023-02-19T06:37:39;99547.78;;;10.68;65.21
11605;BME280;5858;43.076;25.626;2023-02-19T06:40:25;99490.59;;;10.38;64.74
11605;BME280;5858;43.076;25.626;2023-02-19T06:42:55;99544.44;;;10.89;64.22
11605;BME280;5858;43.076;25.626;2023-02-19T06:45:26;99470.41;;;10.36;63.88
11605;BME280;5858;43.076;25.626;2023-02-19T06:47:54;99486.75;;;10.64;64.43
11605;BME280;5858;43.076;25.626;2023-02-19T06:50:24;99359.63;;;10.07;63.30
11605;BME280;5858;43.076;25.626;2023-02-19T06:52:51;99420.03;;;10.39;63.32
11605;BME280;5858;43.076;25.626;2023-02-19T06:55:19;99374.06;;;10.21;63.84
11605;BME280;5858;43.076;25.626;2023-02-19T06:58:20;99379.88;;;10.25;63.85
11605;BME280;5858;43.076;25.626;2023-02-19T07:01:01;99533.03;;;11.48;63.39
11605;BME280;5858;43.076;25.626;2023-02-19T07:03:29;99531.00;;;11.64;61.78
11605;BME280;5858;43.076;25.626;2023-02-19T07:06:20;99530.34;;;11.77;61.45
11605;BME280;5858;43.076;25.626;2023-02-19T07:09:09;99549.69;;;12.02;61.82
11605;BME280;5858;43.076;25.626;2023-02-19T07:12:15;99419.47;;;11.49;60.93
11605;BME280;5858;43.076;25.626;2023-02-19T07:14:57;99488.16;;;12.15;60.04
11605;BME280;5858;43.076;25.626;2023-02-19T07:17:30;99528.59;;;12.50;59.93
11605;BME280;5858;43.076;25.626;2023-02-19T07:19:59;99528.91;;;12.61;59.05
11605;BME280;5858;43.076;25.626;2023-02-19T07:22:27;99527.13;;;12.90;57.75
11605;BME280;5858;43.076;25.626;2023-02-19T07:24:54;99469.31;;;12.73;57.06
11605;BME280;5858;43.076;25.626;2023-02-19T07:27:21;99541.69;;;13.23;56.64
11605;BME280;5858;43.076;25.626;2023-02-19T07:29:48;99505.16;;;13.29;55.49
11605;BME280;5858;43.076;25.626;2023-02-19T07:32:16;99510.66;;;13.49;54.12
11605;BME280;5858;43.076;25.626;2023-02-19T07:34:43;99435.56;;;13.13;53.55
11605;BME280;5858;43.076;25.626;2023-02-19T07:37:11;99524.97;;;13.91;52.96
11605;BME280;5858;43.076;25.626;2023-02-19T07:39:38;99506.50;;;13.74;53.09
11605;BME280;5858;43.076;25.626;2023-02-19T07:42:05;99378.94;;;13.14;52.19
11605;BME280;5858;43.076;25.626;2023-02-19T07:44:32;99454.06;;;13.64;52.10
11605;BME280;5858;43.076;25.626;2023-02-19T07:47:00;99524.28;;;14.23;51.19
11605;BME280;5858;43.076;25.626;2023-02-19T07:49:29;99488.53;;;13.88;51.41
11605;BME280;5858;43.076;25.626;2023-02-19T07:51:57;99488.28;;;14.24;50.68
11605;BME280;5858;43.076;25.626;2023-02-19T07:54:25;99421.72;;;13.92;49.77
11605;BME280;5858;43.076;25.626;2023-02-19T07:56:56;99392.94;;;13.79;49.58
11605;BME280;5858;43.076;25.626;2023-02-19T07:59:26;99530.06;;;14.74;49.26
11605;BME280;5858;43.076;25.626;2023-02-19T08:01:54;99497.47;;;14.56;49.67
11605;BME280;5858;43.076;25.626;2023-02-19T08:04:39;99528.41;;;14.80;49.23
11605;BME280;5858;43.076;25.626;2023-02-19T08:07:06;99472.41;;;14.62;47.81
11605;BME280;5858;43.076;25.626;2023-02-19T08:09:36;99445.28;;;14.57;47.50
11605;BME280;5858;43.076;25.626;2023-02-19T08:12:04;99452.13;;;14.60;47.12
11605;BME280;5858;43.076;25.626;2023-02-19T08:14:48;99464.56;;;14.87;46.88
11605;BME280;5858;43.076;25.626;2023-02-19T08:17:16;99469.13;;;14.80;46.40
11605;BME280;5858;43.076;25.626;2023-02-19T08:19:45;99551.66;;;15.27;46.38
11605;BME280;5858;43.076;25.626;2023-02-19T08:22:13;99457.94;;;14.96;45.96
11605;BME280;5858;43.076;25.626;2023-02-19T08:24:40;99480.94;;;15.05;45.18
11605;BME280;5858;43.076;25.626;2023-02-19T08:27:09;99526.75;;;15.38;45.29
11605;BME280;5858;43.076;25.626;2023-02-19T08:29:36;99435.13;;;14.92;45.43
11605;BME280;5858;43.076;25.626;2023-02-19T08:32:04;99507.66;;;15.47;45.70
11605;BME280;5858;43.076;25.626;2023-02-19T08:34:52;99359.13;;;14.44;45.51
11605;BME280;5858;43.076;25.626;2023-02-19T08:37:20;99450.47;;;15.25;45.75
11605;BME280;5858;43.076;25.626;2023-02-19T08:39:47;99383.75;;;14.94;45.46
11605;BME280;5858;43.076;25.626;2023-02-19T08:42:14;99511.34;;;15.79;45.73
11605;BME280;5858;43.076;25.626;2023-02-19T08:44:50;99492.38;;;15.98;45.89
11605;BME280;5858;43.076;25.626;2023-02-19T08:47:17;99498.41;;;16.00;46.40
11605;BME280;5858;43.076;25.626;2023-02-19T08:49:44;99369.81;;;15.17;45.94
11605;BME280;5858;43.076;25.626;2023-02-19T08:52:15;99460.75;;;15.74;45.49
11605;BME280;5858;43.076;25.626;2023-02-19T08:54:45;99412.88;;;15.43;45.70
11605;BME280;5858;43.076;25.626;2023-02-19T08:57:13;99378.06;;;15.35;45.90
11605;BME280;5858;43.076;25.626;2023-02-19T08:59:46;99396.63;;;15.56;46.72
11605;BME280;5858;43.076;25.626;2023-02-19T09:02:13;99477.41;;;16.09;46.44
11605;BME280;5858;43.076;25.626;2023-02-19T09:04:45;99498.34;;;16.20;46.56
11605;BME280;5858;43.076;25.626;2023-02-19T09:07:28;99421.75;;;15.70;46.10
11605;BME280;5858;43.076;25.626;2023-02-19T09:09:55;99459.13;;;16.04;46.11
11605;BME280;5858;43.076;25.626;2023-02-19T09:12:23;99480.44;;;16.26;46.65
11605;BME280;5858;43.076;25.626;2023-02-19T09:14:58;99357.91;;;15.44;46.08
11605;BME280;5858;43.076;25.626;2023-02-19T09:17:31;99329.72;;;15.33;45.32
11605;BME280;5858;43.076;25.626;2023-02-19T09:19:58;99457.00;;;16.20;45.77
11605;BME280;5858;43.076;25.626;2023-02-19T09:22:25;99465.25;;;16.31;45.32
11605;BME280;5858;43.076;25.626;2023-02-19T09:24:54;99478.19;;;16.54;45.07
11605;BME280;5858;43.076;25.626;2023-02-19T09:27:24;99460.44;;;16.33;45.47
11605;BME280;5858;43.076;25.626;2023-02-19T09:29:52;99440.53;;;16.28;45.17
11605;BME280;5858;43.076;25.626;2023-02-19T09:32:25;99478.00;;;16.56;45.29
11605;BME280;5858;43.076;25.626;2023-02-19T09:35:01;99446.94;;;16.33;44.20
11605;BME280;5858;43.076;25.626;2023-02-19T09:37:31;99466.09;;;16.63;44.44
11605;BME280;5858;43.076;25.626;2023-02-19T09:40:00;99368.31;;;15.85;44.50
11605;BME280;5858;43.076;25.626;2023-02-19T09:42:28;99394.47;;;16.23;44.08
11605;BME280;5858;43.076;25.626;2023-02-19T09:45:00;99407.38;;;16.46;44.38
11605;BME280;5858;43.076;25.626;2023-02-19T09:47:28;99450.56;;;16.84;43.80
11605;BME280;5858;43.076;25.626;2023-02-19T09:50:00;99393.38;;;16.55;43.71
11605;BME280;5858;43.076;25.626;2023-02-19T09:52:33;99469.38;;;16.97;43.44
11605;BME280;5858;43.076;25.626;2023-02-19T09:55:13;99391.50;;;16.62;43.55
11605;BME280;5858;43.076;25.626;2023-02-19T09:57:44;99384.19;;;16.70;43.86
11605;BME280;5858;43.076;25.626;2023-02-19T10:00:20;99453.50;;;17.07;43.46
11605;BME280;5858;43.076;25.626;2023-02-19T10:03:21;99452.84;;;17.12;43.85
11605;BME280;5858;43.076;25.626;2023-02-19T10:05:52;99309.88;;;16.29;44.11
11605;BME280;5858;43.076;25.626;2023-02-19T10:08:39;99441.66;;;17.26;43.65
11605;BME280;5858;43.076;25.626;2023-02-19T10:11:11;99241.19;;;16.25;43.20
11605;BME280;5858;43.076;25.626;2023-02-19T10:13:41;99392.47;;;17.18;43.91
11605;BME280;5858;43.076;25.626;2023-02-19T10:16:12;99327.16;;;16.96;42.62
11605;BME280;5858;43.076;25.626;2023-02-19T10:18:44;99397.41;;;17.39;43.19
11605;BME280;5858;43.076;25.626;2023-02-19T10:21:18;99424.63;;;17.44;43.10
11605;BME280;5858;43.076;25.626;2023-02-19T10:23:47;99417.91;;;17.47;42.12
11605;BME280;5858;43.076;25.626;2023-02-19T10:26:35;99265.75;;;16.66;42.85
11605;BME280;5858;43.076;25.626;2023-02-19T10:29:28;99317.78;;;17.17;42.70
11605;BME280;5858;43.076;25.626;2023-02-19T10:32:15;99270.53;;;17.01;42.57
11605;BME280;5858;43.076;25.626;2023-02-19T10:38:46;99364.66;;;17.47;41.38
11605;BME280;5858;43.076;25.626;2023-02-19T10:41:33;99328.72;;;17.40;40.92
11605;BME280;5858;43.076;25.626;2023-02-19T10:44:41;99206.06;;;16.86;41.27
11605;BME280;5858;43.076;25.626;2023-02-19T10:47:28;99234.19;;;16.97;40.85
11605;BME280;5858;43.076;25.626;2023-02-19T10:50:25;99213.53;;;17.03;40.63
11605;BME280;5858;43.076;25.626;2023-02-19T10:53:20;99372.56;;;17.97;39.55
11605;BME280;5858;43.076;25.626;2023-02-19T11:05:18;99237.88;;;17.51;39.42
11605;BME280;5858;43.076;25.626;2023-02-19T11:07:52;99354.94;;;18.48;39.48
11605;BME280;5858;43.076;25.626;2023-02-19T11:10:26;99342.53;;;18.40;39.53
11605;BME280;5858;43.076;25.626;2023-02-19T11:13:01;99297.31;;;18.41;38.88
11605;BME280;5858;43.076;25.626;2023-02-19T11:15:33;99361.81;;;18.74;38.19
11605;BME280;5858;43.076;25.626;2023-02-19T11:18:04;99295.28;;;18.36;38.54
11605;BME280;5858;43.076;25.626;2023-02-19T11:20:39;99259.72;;;18.21;38.96
11605;BME280;5858;43.076;25.626;2023-02-19T11:24:12;99336.22;;;18.46;38.04
11605;BME280;5858;43.076;25.626;2023-02-19T11:26:22;99319.00;;;18.52;38.28
11605;BME280;5858;43.076;25.626;2023-02-19T11:28:55;99348.03;;;18.75;38.37
11605;BME280;5858;43.076;25.626;2023-02-19T11:31:26;99298.59;;;18.27;38.52
11605;BME280;5858;43.076;25.626;2023-02-19T11:33:57;99213.16;;;17.77;38.33
11605;BME280;5858;43.076;25.626;2023-02-19T11:36:30;99299.19;;;18.40;39.15
11605;BME280;5858;43.076;25.626;2023-02-19T11:39:20;99280.56;;;18.09;38.27
11605;BME280;5858;43.076;25.626;2023-02-19T11:42:03;99319.34;;;18.44;38.42
11605;BME280;5858;43.076;25.626;2023-02-19T11:44:48;99357.56;;;18.66;38.39
11605;BME280;5858;43.076;25.626;2023-02-19T11:51:13;99359.16;;;18.44;39.03
11605;BME280;5858;43.076;25.626;2023-02-19T11:53:59;99273.53;;;17.89;38.75
11605;BME280;5858;43.076;25.626;2023-02-19T11:56:41;99197.25;;;17.39;39.06
11605;BME280;5858;43.076;25.626;2023-02-19T11:59:16;99254.06;;;17.99;38.80
11605;BME280;5858;43.076;25.626;2023-02-19T12:02:27;99339.03;;;18.51;39.27
11605;BME280;5858;43.076;25.626;2023-02-19T12:08:46;99334.34;;;18.59;39.20
11605;BME280;5858;43.076;25.626;2023-02-19T12:14:56;99324.66;;;18.51;39.31
11605;BME280;5858;43.076;25.626;2023-02-19T12:20:48;99307.53;;;18.27;39.40
11605;BME280;5858;43.076;25.626;2023-02-19T12:26:34;99284.47;;;18.24;39.55
11605;BME280;5858;43.076;25.626;2023-02-19T12:29:17;99229.03;;;17.85;39.38
11605;BME280;5858;43.076;25.626;2023-02-19T12:35:25;99292.34;;;18.14;39.82
11605;BME280;5858;43.076;25.626;2023-02-19T12:38:08;99254.41;;;18.14;39.42
11605;BME280;5858;43.076;25.626;2023-02-19T12:41:04;99309.59;;;18.55;39.01
11605;BME280;5858;43.076;25.626;2023-02-19T12:43:40;99278.34;;;18.41;39.30
11605;BME280;5858;43.076;25.626;2023-02-19T12:46:33;99320.53;;;18.60;39.24
11605;BME280;5858;43.076;25.626;2023-02-19T12:49:37;99127.91;;;17.56;39.41
11605;BME280;5858;43.076;25.626;2023-02-19T12:52:21;99157.97;;;17.90;39.08
11605;BME280;5858;43.076;25.626;2023-02-19T12:54:53;99223.47;;;18.45;39.18
11605;BME280;5858;43.076;25.626;2023-02-19T12:57:55;99143.59;;;17.89;39.11
11605;BME280;5858;43.076;25.626;2023-02-19T13:00:34;99230.06;;;18.49;39.51
11605;BME280;5858;43.076;25.626;2023-02-19T13:03:20;99135.72;;;17.88;39.01
11605;BME280;5858;43.076;25.626;2023-02-19T13:05:54;99184.72;;;18.21;38.94
11605;BME280;5858;43.076;25.626;2023-02-19T13:08:28;99123.94;;;17.82;38.87
11605;BME280;5858;43.076;25.626;2023-02-19T13:11:00;99238.19;;;18.49;39.25
11605;BME280;5858;43.076;25.626;2023-02-19T13:13:49;99129.25;;;17.77;39.90
11605;BME280;5858;43.076;25.626;2023-02-19T13:16:19;99137.25;;;17.84;39.46
11605;BME280;5858;43.076;25.626;2023-02-19T13:18:49;99198.00;;;18.35;39.31
11605;BME280;5858;43.076;25.626;2023-02-19T13:21:19;99197.41;;;18.33;39.40
11605;BME280;5858;43.076;25.626;2023-02-19T13:24:04;99242.09;;;18.65;39.32
11605;BME280;5858;43.076;25.626;2023-02-19T13:26:50;99092.78;;;17.68;39.62
11605;BME280;5858;43.076;25.626;2023-02-19T13:29:40;99129.38;;;17.82;39.39
11605;BME280;5858;43.076;25.626;2023-02-19T13:32:28;99214.38;;;18.40;39.82
11605;BME280;5858;43.076;25.626;2023-02-19T13:35:23;99148.19;;;17.89;39.63
11605;BME280;5858;43.076;25.626;2023-02-19T13:37:52;99085.88;;;17.42;39.76
11605;BME280;5858;43.076;25.626;2023-02-19T13:40:30;99132.75;;;17.66;39.73
11605;BME280;5858;43.076;25.626;2023-02-19T13:43:00;99102.47;;;17.46;40.38
11605;BME280;5858;43.076;25.626;2023-02-19T13:45:32;99231.34;;;18.23;40.55
11605;BME280;5858;43.076;25.626;2023-02-19T13:48:13;99175.25;;;17.89;40.85
11605;BME280;5858;43.076;25.626;2023-02-19T13:50:41;99206.38;;;18.21;40.77
11605;BME280;5858;43.076;25.626;2023-02-19T13:56:36;99216.97;;;18.46;40.49
11605;BME280;5858;43.076;25.626;2023-02-19T13:59:54;99036.84;;;17.39;39.92
11605;BME280;5858;43.076;25.626;2023-02-19T14:02:45;99107.34;;;17.79;39.75
11605;BME280;5858;43.076;25.626;2023-02-19T14:09:40;99171.28;;;18.27;39.69
11605;BME280;5858;43.076;25.626;2023-02-19T14:12:20;99080.63;;;17.59;40.00
11605;BME280;5858;43.076;25.626;2023-02-19T14:14:52;99185.41;;;18.17;39.88
11605;BME280;5858;43.076;25.626;2023-02-19T14:17:37;99050.16;;;17.52;40.11
11605;BME280;5858;43.076;25.626;2023-02-19T14:20:41;99053.31;;;17.60;39.46
11605;BME280;5858;43.076;25.626;2023-02-19T14:29:36;99165.28;;;18.24;39.94
11605;BME280;5858;43.076;25.626;2023-02-19T14:32:06;99101.00;;;17.73;40.55
11605;BME280;5858;43.076;25.626;2023-02-19T14:38:49;99104.16;;;17.58;41.80
11605;BME280;5858;43.076;25.626;2023-02-19T14:47:45;99081.28;;;17.31;42.17